Peacock, Michigan
Current Conditions -  °F | °C
As of 4:55 AM on Sunday 23 Nov 2014 (Local Time) from KMBL Reporting Station
Broken Clouds Broken Clouds  
Wind Chill: 42°   Ceiling: 1300
Heat Index: 45°   Visibility: 3mi
Dew Point: 43°   Wind: 5mph
Humidity: 93%   Direction: 150°SSE
Pressure: 29.76"   Gusts: NA
Location:  44.0851°N, 85.9284°W
Report Text: KMBL 230955Z AUTO 15004KT 3SM SCT005 BKN013 07/06 A2976 RMK AO1
Loading
Personal Weather Stations






























Interactive Weather Map New forecast layout! Learn more

10-Day Weather Forecast

Advertisements
Track Severe Weather on mobile